Time;durP1;ratioP1;P1;durP2;ratioP2;P2;SDS_P1;SDS_P2;PMS_P1;PMS_P2;Temp;Humidity;BMP_temperature;BMP_pressure;BME280_temperature;BME280_humidity;BME280_pressure;Samples;Min_cycle;Max_cycle;Signal;HPM_P1;HPM_P2
2022/01/10 00:00:11;;;;;;;5.10;4.67;;;4.70;54.60;;;;;;20729;6747;118175;-85
2022/01/10 00:02:47;;;;;;;4.83;4.50;;;4.60;55.00;;;;;;20807;6762;117323;-85
2022/01/10 00:05:22;;;;;;;5.70;5.20;;;4.50;55.20;;;;;;20854;6747;118238;-85
2022/01/10 00:07:58;;;;;;;7.20;5.75;;;4.40;55.30;;;;;;20558;6766;340687;-85
2022/01/10 00:10:35;;;;;;;6.20;5.60;;;4.70;55.80;;;;;;20519;6747;308072;-85
2022/01/10 00:13:10;;;;;;;6.63;6.03;;;5.10;54.60;;;;;;20646;6747;275965;-85
2022/01/10 00:15:46;;;;;;;6.17;5.30;;;5.50;53.60;;;;;;20892;6732;116749;-85
2022/01/10 00:18:21;;;;;;;6.75;6.12;;;5.40;53.40;;;;;;20685;6732;337980;-84
2022/01/10 00:20:57;;;;;;;6.30;5.00;;;5.40;53.60;;;;;;20689;6747;116179;-84
2022/01/10 00:23:36;;;;;;;6.30;5.80;;;5.40;53.70;;;;;;20694;6732;308984;-85
2022/01/10 00:26:08;;;;;;;6.68;5.30;;;5.50;54.00;;;;;;20632;6747;277275;-85
2022/01/10 00:28:44;;;;;;;5.57;4.90;;;5.70;53.50;;;;;;20843;6747;118134;-85
2022/01/10 00:31:19;;;;;;;6.67;4.73;;;5.60;53.40;;;;;;20883;6739;116898;-84
2022/01/10 00:33:55;;;;;;;6.10;4.40;;;5.40;54.00;;;;;;20862;6739;116954;-85
2022/01/10 00:36:30;;;;;;;6.93;4.90;;;5.10;54.40;;;;;;20717;6728;277850;-85
2022/01/10 00:39:06;;;;;;;6.20;4.93;;;5.30;54.90;;;;;;20641;6739;334476;-85
2022/01/10 00:41:45;;;;;;;4.50;4.10;;;5.60;54.10;;;;;;20670;6769;118010;-85
2022/01/10 00:44:25;;;;;;;5.68;5.15;;;5.60;54.50;;;;;;20668;6754;275963;-85
2022/01/10 00:46:54;;;;;;;6.87;4.90;;;5.70;53.70;;;;;;20870;6738;116857;-85
2022/01/10 00:49:30;;;;;;;5.20;4.40;;;5.60;53.60;;;;;;20821;6735;117215;-84
2022/01/10 00:52:06;;;;;;;8.40;5.17;;;5.30;54.00;;;;;;20919;6721;118103;-85
2022/01/10 00:54:41;;;;;;;5.97;5.40;;;5.10;54.50;;;;;;20752;6721;305542;-85
2022/01/10 00:57:16;;;;;;;5.97;5.37;;;5.20;54.90;;;;;;20746;6721;333860;-85
2022/01/10 00:59:52;;;;;;;5.72;5.25;;;5.50;55.00;;;;;;20641;6721;310839;-84
2022/01/10 01:02:31;;;;;;;5.17;4.30;;;5.90;53.50;;;;;;20899;6735;117449;-85
2022/01/10 01:05:05;;;;;;;3.63;3.33;;;5.80;53.40;;;;;;20915;6732;118492;-85
2022/01/10 01:07:40;;;;;;;4.47;4.17;;;5.50;53.90;;;;;;20697;6732;298697;-85
2022/01/10 01:10:52;;;;;;;4.97;4.33;;;5.60;54.30;;;;;;20574;6732;316140;-85
2022/01/10 01:13:07;;;;;;;4.00;3.70;;;5.90;53.80;;;;;;20819;6805;122086;-85
2022/01/10 01:15:57;;;;;;;3.93;3.53;;;5.80;53.50;;;;;;20791;6812;118540;-85
2022/01/10 01:18:18;;;;;;;5.43;4.17;;;5.60;54.00;;;;;;20602;6803;311671;-85
2022/01/10 01:24:01;;;;;;;4.07;3.60;;;5.70;54.20;;;;;;20477;6751;294121;-85
2022/01/10 01:26:17;;;;;;;5.40;4.20;;;6.20;52.30;;;;;;20899;6734;117244;-85
2022/01/10 01:28:53;;;;;;;5.33;4.00;;;6.00;52.30;;;;;;20872;6739;117201;-87
2022/01/10 01:31:28;;;;;;;5.10;4.60;;;5.70;53.00;;;;;;20656;6745;301287;-84
2022/01/10 01:34:05;;;;;;;4.93;4.43;;;5.70;53.30;;;;;;20618;6754;309422;-85
2022/01/10 01:36:41;;;;;;;8.00;4.13;;;6.00;53.00;;;;;;20926;6736;116678;-85
2022/01/10 01:39:20;;;;;;;4.13;3.73;;;5.90;52.90;;;;;;20595;6752;279899;-87
2022/01/10 01:41:54;;;;;;;4.10;3.80;;;5.90;53.00;;;;;;20795;6754;117508;-86
2022/01/10 01:44:31;;;;;;;5.17;3.67;;;5.50;54.10;;;;;;20817;6758;116730;-85
2022/01/10 01:47:07;;;;;;;4.90;4.40;;;5.40;53.40;;;;;;20824;6756;116972;-85
2022/01/10 01:49:52;;;;;;;5.27;4.73;;;5.20;54.00;;;;;;20791;6739;117466;-87
2022/01/10 01:52:19;;;;;;;6.07;4.90;;;5.20;54.90;;;;;;20674;6739;276756;-85
2022/01/10 01:54:54;;;;;;;5.33;4.77;;;5.20;54.90;;;;;;20822;6760;122454;-85
2022/01/10 01:57:30;;;;;;;6.57;5.10;;;5.20;54.60;;;;;;20892;6738;116818;-85
2022/01/10 02:00:06;;;;;;;6.53;5.90;;;5.10;54.80;;;;;;20587;6726;307093;-85
2022/01/10 02:02:41;;;;;;;5.90;5.30;;;5.30;54.70;;;;;;20872;6746;117157;-85
2022/01/10 02:05:18;;;;;;;6.20;5.20;;;5.30;54.40;;;;;;20781;6761;116883;-85
2022/01/10 02:08:03;;;;;;;5.53;4.80;;;5.10;54.70;;;;;;20701;6828;117057;-85
2022/01/10 02:10:29;;;;;;;6.90;6.00;;;5.00;55.10;;;;;;20627;6776;117283;-86
2022/01/10 02:13:05;;;;;;;6.63;6.03;;;4.90;55.40;;;;;;20548;6779;309264;-85
2022/01/10 02:15:50;;;;;;;7.70;6.90;;;5.10;55.30;;;;;;20768;6777;116868;-85
2022/01/10 02:18:22;;;;;;;6.53;5.93;;;5.20;54.90;;;;;;20582;6765;341199;-85
2022/01/10 02:21:00;;;;;;;10.53;8.57;;;5.40;54.80;;;;;;20610;6768;117463;-85
2022/01/10 02:23:33;;;;;;;6.00;5.43;;;5.40;54.60;;;;;;20832;6751;117408;-85
2022/01/10 02:26:10;;;;;;;5.83;5.33;;;5.20;54.80;;;;;;20624;6755;278394;-85
2022/01/10 02:28:48;;;;;;;6.77;6.17;;;5.40;54.90;;;;;;20620;6756;276785;-84
2022/01/10 02:31:25;;;;;;;8.10;7.30;;;5.70;54.40;;;;;;20849;6751;116750;-85
2022/01/10 02:34:00;;;;;;;8.05;7.35;;;5.70;53.90;;;;;;20656;6755;338586;-84
2022/01/10 02:36:36;;;;;;;6.10;5.07;;;5.80;53.70;;;;;;20901;6807;115995;-84
2022/01/10 02:39:15;;;;;;;6.60;5.90;;;5.70;53.60;;;;;;20631;6812;336637;-84
2022/01/10 02:41:51;;;;;;;6.00;5.50;;;5.80;53.80;;;;;;20956;6726;120132;-85
2022/01/10 02:44:29;;;;;;;6.70;4.90;;;5.80;54.50;;;;;;20826;6756;118696;-85
2022/01/10 02:47:02;;;;;;;6.45;5.85;;;5.50;54.10;;;;;;20604;6756;341063;-86
2022/01/10 02:49:40;;;;;;;5.40;5.00;;;5.60;54.30;;;;;;20827;6808;117063;-84
2022/01/10 02:52:18;;;;;;;7.40;6.70;;;5.60;54.20;;;;;;20672;6736;295972;-84
2022/01/10 02:55:01;;;;;;;;;;;;;;;;;;;;;
2022/01/10 02:57:41;;;;;;;5.67;5.17;;;6.00;53.40;;;;;;20961;6751;67752;-94
2022/01/10 03:00:13;;;;;;;7.20;5.40;;;5.90;53.30;;;;;;20526;6755;308673;-85
2022/01/10 03:02:51;;;;;;;6.13;5.53;;;5.90;53.30;;;;;;20758;6736;278085;-85
2022/01/10 03:05:26;;;;;;;7.07;5.70;;;6.20;52.80;;;;;;20734;6745;305688;-84
2022/01/10 03:08:03;;;;;;;5.57;5.00;;;6.30;52.30;;;;;;20978;6735;115985;-85
2022/01/10 03:10:37;;;;;;;7.97;4.93;;;6.10;52.40;;;;;;20821;6744;68270;-85
2022/01/10 03:13:14;;;;;;;6.83;5.17;;;5.80;53.10;;;;;;20929;6750;116832;-85
2022/01/10 03:15:49;;;;;;;6.67;5.07;;;5.50;53.80;;;;;;20871;6756;117323;-85
2022/01/10 03:18:25;;;;;;;6.10;5.50;;;5.30;54.30;;;;;;20643;6768;281492;-85
2022/01/10 03:21:00;;;;;;;6.80;6.20;;;5.40;54.70;;;;;;20536;6741;312729;-85
2022/01/10 03:23:36;;;;;;;5.50;5.00;;;5.70;54.30;;;;;;20897;6741;116905;-85
2022/01/10 03:26:12;;;;;;;5.17;4.70;;;5.60;54.00;;;;;;20908;6726;117912;-84
2022/01/10 03:28:47;;;;;;;6.37;5.68;;;5.40;54.50;;;;;;20701;6726;307023;-85
2022/01/10 03:31:24;;;;;;;7.35;6.03;;;5.40;55.10;;;;;;20663;6741;310824;-85
2022/01/10 03:33:58;;;;;;;12.83;6.87;;;5.70;54.20;;;;;;20811;6756;122712;-85
2022/01/10 03:36:34;;;;;;;7.80;7.00;;;5.60;54.00;;;;;;20609;6756;336285;-84
2022/01/10 03:39:14;;;;;;;6.37;5.90;;;5.60;54.10;;;;;;20860;6736;116897;-84
2022/01/10 03:41:49;;;;;;;7.30;6.70;;;5.50;54.00;;;;;;20603;6756;283398;-84
2022/01/10 03:44:25;;;;;;;7.90;6.90;;;5.80;53.90;;;;;;20623;6756;297664;-85
2022/01/10 03:47:02;;;;;;;6.17;5.73;;;5.80;53.90;;;;;;20884;6742;116784;-84
2022/01/10 03:49:39;;;;;;;5.77;5.20;;;5.30;54.20;;;;;;20872;6726;116746;-84
2022/01/10 03:52:14;;;;;;;6.87;6.17;;;5.30;54.20;;;;;;20928;6726;117527;-83
2022/01/10 03:54:50;;;;;;;8.70;6.00;;;5.00;54.80;;;;;;20930;6727;116817;-84
2022/01/10 03:57:26;;;;;;;8.10;5.90;;;4.80;55.30;;;;;;20817;6760;117482;-84
2022/01/10 04:00:01;;;;;;;7.43;6.90;;;4.70;55.80;;;;;;20590;6730;307573;-84
2022/01/10 04:02:39;;;;;;;9.00;8.10;;;4.80;56.10;;;;;;20656;6742;310384;-84
2022/01/10 04:05:13;;;;;;;7.77;7.07;;;5.20;55.40;;;;;;20874;6741;116886;-85
2022/01/10 04:07:49;;;;;;;8.10;7.40;;;5.20;54.90;;;;;;20670;6734;276023;-85
2022/01/10 04:10:24;;;;;;;7.77;7.10;;;5.30;55.40;;;;;;20728;6756;118627;-84
2022/01/10 04:13:06;;;;;;;7.87;7.30;;;5.20;55.20;;;;;;20646;6742;279047;-85
2022/01/10 04:15:36;;;;;;;7.90;7.10;;;5.30;55.30;;;;;;20621;6756;280564;-85
2022/01/10 04:18:11;;;;;;;8.05;7.35;;;5.60;54.70;;;;;;20575;6756;336554;-85
2022/01/10 04:20:47;;;;;;;6.73;6.13;;;5.80;54.00;;;;;;20748;6729;119919;-84
2022/01/10 04:23:23;;;;;;;7.03;6.27;;;5.40;55.40;;;;;;20873;6741;116814;-84
2022/01/10 04:25:59;;;;;;;7.70;7.00;;;5.30;54.50;;;;;;20678;6726;335647;-84
2022/01/10 04:28:34;;;;;;;6.70;6.20;;;5.40;55.00;;;;;;20870;6745;116800;-84
2022/01/10 04:31:11;;;;;;;8.83;5.90;;;5.30;54.90;;;;;;20709;6794;117113;-84
2022/01/10 04:33:45;;;;;;;6.87;6.10;;;5.10;55.30;;;;;;20858;6745;117030;-84
2022/01/10 04:36:21;;;;;;;7.13;6.50;;;4.90;55.80;;;;;;20827;6759;117924;-84
2022/01/10 04:38:56;;;;;;;7.80;7.20;;;4.70;56.10;;;;;;20673;6736;306045;-84
2022/01/10 04:41:32;;;;;;;8.60;7.87;;;4.90;56.50;;;;;;20718;6741;279044;-84
2022/01/10 04:44:08;;;;;;;7.47;6.80;;;5.30;55.80;;;;;;20687;6741;334991;-84
2022/01/10 04:46:44;;;;;;;6.70;6.10;;;5.60;55.10;;;;;;20921;6741;118291;-84
2022/01/10 04:49:26;;;;;;;7.60;6.90;;;5.50;54.80;;;;;;20656;6741;309075;-84
2022/01/10 04:51:59;;;;;;;6.80;6.20;;;5.50;55.10;;;;;;20901;6741;116868;-84
2022/01/10 04:54:34;;;;;;;7.07;6.47;;;5.40;55.10;;;;;;20706;6741;305475;-84
2022/01/10 04:57:10;;;;;;;6.67;6.17;;;5.40;55.20;;;;;;20829;6756;117570;-84
2022/01/10 04:59:48;;;;;;;6.10;5.50;;;5.10;55.60;;;;;;20738;6749;117620;-85
2022/01/10 05:02:23;;;;;;;7.80;7.10;;;5.10;55.60;;;;;;20705;6726;305673;-84
2022/01/10 05:04:59;;;;;;;6.97;6.43;;;5.20;55.80;;;;;;20927;6726;122096;-84
2022/01/10 05:07:35;;;;;;;7.67;6.97;;;5.10;55.50;;;;;;20680;6734;339809;-84
2022/01/10 05:10:10;;;;;;;8.02;7.28;;;5.20;55.70;;;;;;20575;6734;327514;-84
2022/01/10 05:12:46;;;;;;;7.13;6.53;;;5.50;55.10;;;;;;20882;6741;117363;-84
2022/01/10 05:15:21;;;;;;;8.50;7.68;;;5.40;54.90;;;;;;20664;6741;339846;-84
2022/01/10 05:17:58;;;;;;;6.77;6.27;;;5.50;55.20;;;;;;20843;6742;117925;-84
2022/01/10 05:20:34;;;;;;;6.53;5.93;;;5.40;55.20;;;;;;20782;6783;117615;-84
2022/01/10 05:23:09;;;;;;;6.20;5.60;;;5.10;55.60;;;;;;20863;6741;116967;-86
2022/01/10 05:25:46;;;;;;;6.50;5.90;;;4.90;56.10;;;;;;20861;6741;116973;-87
2022/01/10 05:28:21;;;;;;;6.67;6.07;;;4.80;56.50;;;;;;20838;6750;117167;-88
2022/01/10 05:31:00;;;;;;;8.10;7.50;;;4.80;57.00;;;;;;20515;6742;307328;-87
2022/01/10 05:33:33;;;;;;;8.70;6.80;;;4.80;57.00;;;;;;20929;6726;116636;-91
2022/01/10 05:36:09;;;;;;;7.23;6.63;;;4.90;56.70;;;;;;20855;6744;117219;-88
2022/01/10 05:38:45;;;;;;;7.60;6.83;;;4.70;56.80;;;;;;20908;6741;116678;-88
2022/01/10 05:41:22;;;;;;;9.33;7.60;;;4.60;57.10;;;;;;20931;6741;116010;-91
2022/01/10 05:43:57;;;;;;;9.93;8.93;;;4.50;57.40;;;;;;20716;6741;304651;-92
2022/01/10 05:46:34;;;;;;;9.60;8.77;;;4.70;57.50;;;;;;20794;6726;276940;-89
2022/01/10 05:49:10;;;;;;;10.00;9.10;;;5.10;56.70;;;;;;20724;6726;306118;-88
2022/01/10 05:51:49;;;;;;;8.47;7.67;;;5.40;55.90;;;;;;20835;6741;117431;-88
2022/01/10 05:54:19;;;;;;;9.10;8.30;;;5.30;55.70;;;;;;20663;6741;336341;-88
2022/01/10 05:56:55;;;;;;;8.97;8.10;;;5.40;55.80;;;;;;20896;6741;117695;-89
2022/01/10 05:59:31;;;;;;;8.10;7.40;;;5.30;55.70;;;;;;20769;6741;117146;-88
2022/01/10 06:02:06;;;;;;;8.00;7.07;;;5.10;56.20;;;;;;20893;6734;116834;-89
2022/01/10 06:04:43;;;;;;;7.60;7.00;;;4.90;56.70;;;;;;20843;6749;117213;-88
2022/01/10 06:07:20;;;;;;;7.90;7.20;;;4.70;57.10;;;;;;20847;6752;116903;-88
2022/01/10 06:09:56;;;;;;;8.90;8.10;;;4.80;57.60;;;;;;20550;6741;296618;-88
2022/01/10 06:12:32;;;;;;;9.30;8.43;;;4.80;57.60;;;;;;20707;6726;335928;-87
2022/01/10 06:15:09;;;;;;;7.80;7.13;;;5.20;56.70;;;;;;20850;6745;116978;-89
2022/01/10 06:17:45;;;;;;;8.65;7.95;;;5.20;56.30;;;;;;20649;6741;277660;-87
2022/01/10 06:20:22;;;;;;;8.60;7.87;;;5.60;55.70;;;;;;20552;6741;282706;-89
2022/01/10 06:22:59;;;;;;;7.60;6.90;;;5.60;55.70;;;;;;20874;6741;117316;-87
2022/01/10 06:25:34;;;;;;;9.03;8.23;;;5.50;55.50;;;;;;20666;6742;306422;-87
2022/01/10 06:28:10;;;;;;;7.57;6.83;;;5.60;55.70;;;;;;20909;6726;117298;-87
2022/01/10 06:30:47;;;;;;;7.67;6.87;;;5.50;55.60;;;;;;20750;6742;117250;-88
2022/01/10 06:33:22;;;;;;;8.07;7.37;;;5.30;56.10;;;;;;20679;6726;280012;-86
2022/01/10 06:36:01;;;;;;;8.20;7.60;;;5.30;56.20;;;;;;20688;6726;310035;-87
2022/01/10 06:38:37;;;;;;;7.63;7.07;;;5.60;55.50;;;;;;20822;6756;117198;-86
2022/01/10 06:41:14;;;;;;;7.20;6.70;;;5.30;56.00;;;;;;20663;6810;117070;-86
2022/01/10 06:43:49;;;;;;;6.70;6.20;;;5.30;56.00;;;;;;20643;6741;310161;-85
2022/01/10 06:46:25;;;;;;;5.60;5.17;;;5.50;57.70;;;;;;20879;6741;117482;-85
2022/01/10 06:49:01;;;;;;;5.90;5.50;;;5.50;57.50;;;;;;20701;6726;278660;-85
2022/01/10 06:51:37;;;;;;;5.90;5.50;;;6.20;57.50;;;;;;20668;6741;340236;-85
2022/01/10 06:54:14;;;;;;;6.03;5.62;;;6.20;57.50;;;;;;20696;6726;310701;-86
2022/01/10 06:56:51;;;;;;;5.27;4.87;;;6.50;56.60;;;;;;20876;6741;116792;-86
2022/01/10 06:59:26;;;;;;;5.37;4.97;;;6.50;56.20;;;;;;20797;6750;116769;-86
2022/01/10 07:02:03;;;;;;;5.72;5.32;;;6.30;56.80;;;;;;20645;6741;337123;-86
2022/01/10 07:04:39;;;;;;;5.90;5.50;;;6.40;56.90;;;;;;20663;6741;306702;-86
2022/01/10 07:07:16;;;;;;;5.73;5.00;;;6.80;56.40;;;;;;20882;6741;117115;-86
2022/01/10 07:10:00;;;;;;;4.80;4.40;;;6.80;56.00;;;;;;20756;6745;117511;-85
2022/01/10 07:12:27;;;;;;;5.40;5.00;;;6.60;56.30;;;;;;20877;6741;117365;-86
2022/01/10 07:15:03;;;;;;;5.63;5.23;;;6.30;56.60;;;;;;20658;6741;311227;-87
2022/01/10 07:17:38;;;;;;;5.60;5.17;;;6.50;56.20;;;;;;20679;6783;306042;-88
2022/01/10 07:20:14;;;;;;;5.57;5.17;;;6.80;55.30;;;;;;20846;6741;116833;-87
2022/01/10 07:22:49;;;;;;;11.97;10.80;;;6.70;55.30;;;;;;20950;6741;116395;-87
2022/01/10 07:25:25;;;;;;;6.10;5.60;;;6.50;55.60;;;;;;20252;6792;68084;-87
2022/01/10 07:28:00;;;;;;;8.17;6.67;;;6.30;55.90;;;;;;20877;6736;119401;-89
2022/01/10 07:30:37;;;;;;;6.53;5.93;;;6.10;57.70;;;;;;20812;6736;117355;-88
2022/01/10 07:33:12;;;;;;;6.37;5.77;;;6.00;56.90;;;;;;20894;6742;117010;-88
2022/01/10 07:35:49;;;;;;;5.73;5.33;;;6.00;57.20;;;;;;20908;6726;117400;-88
2022/01/10 07:38:25;;;;;;;6.50;5.90;;;5.90;57.40;;;;;;20675;6745;276325;-87
2022/01/10 07:41:04;;;;;;;5.53;5.13;;;6.20;57.50;;;;;;20681;6798;117594;-89
2022/01/10 07:43:41;;;;;;;5.43;4.97;;;6.30;57.20;;;;;;20868;6726;115901;-87
2022/01/10 07:46:18;;;;;;;6.30;5.80;;;6.30;57.20;;;;;;20671;6741;308248;-88
2022/01/10 07:48:54;;;;;;;5.90;5.40;;;6.50;56.90;;;;;;20763;6771;117014;-87
2022/01/10 07:51:29;;;;;;;6.53;6.03;;;6.50;56.30;;;;;;20703;6749;296745;-87
2022/01/10 07:54:06;;;;;;;6.27;5.77;;;6.70;55.10;;;;;;20790;6751;117409;-88
2022/01/10 07:56:43;;;;;;;6.80;6.30;;;6.70;55.20;;;;;;20861;6751;116980;-88
2022/01/10 07:59:19;;;;;;;7.17;6.57;;;6.50;55.50;;;;;;20585;6746;284438;-87
2022/01/10 08:01:55;;;;;;;7.17;6.60;;;6.60;55.10;;;;;;20590;6749;280788;-88
2022/01/10 08:04:43;;;;;;;;;;;;;;;;;;;;;
2022/01/10 08:07:09;;;;;;;6.33;5.77;;;7.10;53.90;;;;;;20810;6764;116767;-88
2022/01/10 08:09:44;;;;;;;6.63;6.03;;;7.00;53.90;;;;;;20727;6753;117837;-89
2022/01/10 08:12:20;;;;;;;7.10;6.60;;;6.80;54.60;;;;;;20590;6761;306246;-89
2022/01/10 08:14:57;;;;;;;6.80;6.27;;;6.80;54.50;;;;;;20823;6762;116814;-88
2022/01/10 08:17:32;;;;;;;7.10;6.50;;;6.80;54.50;;;;;;20603;6762;306661;-88
2022/01/10 08:20:08;;;;;;;6.63;6.07;;;7.00;54.50;;;;;;20734;6765;119098;-90
2022/01/10 08:22:44;;;;;;;7.20;6.70;;;7.00;54.20;;;;;;20685;6750;309374;-88
2022/01/10 08:25:21;;;;;;;9.10;8.20;;;7.00;54.20;;;;;;20896;6750;116644;-88
2022/01/10 08:27:57;;;;;;;7.00;6.40;;;6.90;53.90;;;;;;20885;6750;116719;-87
2022/01/10 08:30:42;;;;;;;7.05;6.47;;;6.70;54.30;;;;;;20541;6751;345069;-88
2022/01/10 08:33:08;;;;;;;8.73;8.05;;;6.80;54.40;;;;;;20673;6755;335094;-87
2022/01/10 08:35:44;;;;;;;9.50;8.60;;;7.10;53.80;;;;;;20865;6755;117196;-88
2022/01/10 08:38:19;;;;;;;8.43;7.82;;;7.00;53.70;;;;;;20559;6770;310919;-88
2022/01/10 08:40:55;;;;;;;7.90;7.18;;;7.10;53.60;;;;;;20392;6755;284553;-88
2022/01/10 08:43:31;;;;;;;7.70;7.00;;;7.30;53.00;;;;;;20774;6763;116973;-87
2022/01/10 08:46:06;;;;;;;13.35;12.23;;;7.30;53.20;;;;;;20566;6766;306981;-90
2022/01/10 08:48:42;;;;;;;12.90;11.70;;;7.30;53.20;;;;;;20891;6751;116598;-88
2022/01/10 08:51:17;;;;;;;11.50;10.40;;;7.20;53.40;;;;;;20950;6737;68348;-88
2022/01/10 08:53:54;;;;;;;9.10;8.20;;;6.90;53.90;;;;;;20822;6741;119309;-87
2022/01/10 08:56:35;;;;;;;10.03;9.13;;;6.70;54.30;;;;;;20646;6762;322606;-88
2022/01/10 08:59:05;;;;;;;9.60;8.80;;;6.80;54.20;;;;;;20595;6771;337773;-88
2022/01/10 09:01:42;;;;;;;9.70;9.00;;;7.20;53.60;;;;;;20852;6769;117081;-88
2022/01/10 09:04:16;;;;;;;8.73;7.93;;;7.10;53.40;;;;;;20844;6770;117019;-89
2022/01/10 09:06:52;;;;;;;8.77;7.93;;;6.90;53.90;;;;;;20817;6770;116890;-89
2022/01/10 09:09:27;;;;;;;9.95;9.05;;;6.80;54.40;;;;;;20601;6764;337369;-89
2022/01/10 09:12:12;;;;;;;10.70;9.73;;;6.90;54.00;;;;;;20199;6745;321177;-93
2022/01/10 09:14:45;;;;;;;14.90;13.40;;;7.20;53.70;;;;;;20664;6815;276885;-88
2022/01/10 09:17:21;;;;;;;11.90;10.80;;;7.50;52.70;;;;;;20624;6773;280178;-89
2022/01/10 09:20:05;;;;;;;8.23;7.63;;;7.80;52.40;;;;;;20730;6771;118515;-89
2022/01/10 09:22:33;;;;;;;8.68;7.90;;;7.60;52.60;;;;;;20628;6771;335314;-89
2022/01/10 09:25:09;;;;;;;10.90;8.77;;;7.60;52.70;;;;;;20867;6760;116853;-90
2022/01/10 09:27:45;;;;;;;9.57;8.67;;;7.50;52.70;;;;;;20825;6732;120864;-89
2022/01/10 09:30:22;;;;;;;10.00;9.10;;;7.30;53.20;;;;;;20485;6751;324664;-89
2022/01/10 09:32:56;;;;;;;8.43;7.63;;;7.40;53.10;;;;;;20894;6744;115859;-89
2022/01/10 09:35:32;;;;;;;10.85;9.85;;;7.30;53.10;;;;;;20692;6763;310785;-89
2022/01/10 09:38:07;;;;;;;7.83;7.23;;;7.40;53.20;;;;;;20826;6779;118041;-89
2022/01/10 09:40:44;;;;;;;11.27;10.17;;;7.30;53.30;;;;;;20678;6766;121190;-89
2022/01/10 09:43:20;;;;;;;8.60;7.80;;;7.20;53.90;;;;;;20873;6751;117113;-89
2022/01/10 09:45:56;;;;;;;10.03;9.20;;;7.00;54.30;;;;;;20855;6751;117317;-90
2022/01/10 09:48:31;;;;;;;8.03;7.37;;;6.90;54.60;;;;;;20804;6806;116082;-89
2022/01/10 09:51:16;;;;;;;9.57;8.77;;;6.80;54.90;;;;;;20484;6751;309507;-89
2022/01/10 09:53:42;;;;;;;8.48;7.82;;;7.00;54.50;;;;;;20718;6737;305547;-89
2022/01/10 09:56:17;;;;;;;13.43;12.00;;;7.40;53.50;;;;;;20736;6737;305907;-90
2022/01/10 09:58:57;;;;;;;10.93;9.90;;;7.90;52.60;;;;;;20888;6751;116393;-89
2022/01/10 10:01:32;;;;;;;17.67;10.47;;;7.80;52.40;;;;;;20871;6764;117066;-90
2022/01/10 10:04:08;;;;;;;12.97;11.33;;;7.50;52.80;;;;;;20722;6749;117689;-90
2022/01/10 10:06:45;;;;;;;17.03;11.03;;;7.20;53.10;;;;;;20902;6751;116942;-90
2022/01/10 10:09:21;;;;;;;17.20;12.00;;;7.00;53.60;;;;;;20647;6756;123899;-90
2022/01/10 10:11:57;;;;;;;12.03;10.47;;;6.90;53.90;;;;;;20870;6756;117168;-90
2022/01/10 10:14:33;;;;;;;15.48;13.98;;;6.90;53.60;;;;;;20662;6756;304510;-89
2022/01/10 10:17:14;;;;;;;14.53;12.97;;;6.90;53.60;;;;;;20769;6780;121968;-90
2022/01/10 10:19:46;;;;;;;12.87;11.60;;;6.80;53.90;;;;;;20646;6840;118157;-91
2022/01/10 10:22:22;;;;;;;11.32;10.20;;;6.80;53.90;;;;;;20571;6769;306713;-89
2022/01/10 10:24:57;;;;;;;11.38;10.43;;;7.00;54.10;;;;;;20530;6832;307384;-87
2022/01/10 10:27:39;;;;;;;26.37;23.80;;;7.50;53.30;;;;;;20760;6781;116609;-91
2022/01/10 10:30:23;;;;;;;10.90;9.83;;;7.50;53.40;;;;;;20717;6766;118044;-91
2022/01/10 10:33:15;;;;;;;12.55;11.38;;;7.30;53.50;;;;;;20662;6745;315876;-91
2022/01/10 10:36:03;;;;;;;13.00;11.90;;;7.40;52.90;;;;;;20799;6806;117783;-90
2022/01/10 10:38:46;;;;;;;12.53;10.53;;;7.40;52.80;;;;;;20841;6754;120215;-91
2022/01/10 10:41:13;;;;;;;21.20;18.83;;;7.20;53.30;;;;;;20564;6827;336093;-91
2022/01/10 10:43:51;;;;;;;13.30;12.03;;;7.30;52.60;;;;;;20579;6768;299442;-90
2022/01/10 10:46:27;;;;;;;11.47;10.40;;;7.60;51.80;;;;;;20905;6742;117664;-90
2022/01/10 10:49:04;;;;;;;14.43;12.23;;;7.60;51.80;;;;;;20879;6755;117622;-91
2022/01/10 10:51:50;;;;;;;;;;;;;;;;;;;;;
2022/01/10 10:54:35;;;;;;;13.88;11.88;;;7.40;51.70;;;;;;19880;6971;324749;-93
2022/01/10 11:00:46;;;;;;;18.90;16.87;;;7.60;51.10;;;;;;20605;6735;319730;-91
2022/01/10 11:03:22;;;;;;;17.80;13.13;;;7.70;51.00;;;;;;20698;6788;334649;-92
2022/01/10 11:06:01;;;;;;;15.20;10.80;;;7.90;50.50;;;;;;20820;6763;123619;-90
2022/01/10 11:08:46;;;;;;;;;;;;;;;;;;;;;
2022/01/10 11:11:22;;;;;;;12.83;11.53;;;7.20;51.90;;;;;;20762;6747;117183;-92
2022/01/10 11:13:58;;;;;;;17.30;13.82;;;7.10;51.60;;;;;;20557;6805;277754;-90
2022/01/10 11:16:34;;;;;;;13.33;11.17;;;7.30;51.40;;;;;;20885;6743;117681;-90
2022/01/10 11:19:12;;;;;;;14.73;10.40;;;7.20;51.40;;;;;;20785;6743;116474;-90
2022/01/10 11:22:02;;;;;;;14.33;12.80;;;7.00;51.80;;;;;;20557;6820;310523;-91
2022/01/10 11:24:41;;;;;;;11.97;10.77;;;7.10;52.00;;;;;;20743;6779;117931;-91
2022/01/10 11:27:39;;;;;;;11.03;9.70;;;7.10;51.80;;;;;;20718;6835;120395;-90
2022/01/10 11:30:32;;;;;;;;;;;;;;;;;;;;;
2022/01/10 11:33:11;;;;;;;16.00;12.30;;;6.70;52.60;;;;;;20876;6733;117664;-91
2022/01/10 11:35:56;;;;;;;14.00;10.40;;;6.60;53.00;;;;;;20844;6750;116920;-88
2022/01/10 11:38:41;;;;;;;13.80;12.32;;;6.50;53.30;;;;;;20650;6806;335706;-90
2022/01/10 11:41:21;;;;;;;14.90;12.37;;;6.70;53.00;;;;;;20857;6798;117100;-89
2022/01/10 11:44:01;;;;;;;14.73;11.90;;;6.80;52.80;;;;;;20877;6743;117213;-87
2022/01/10 11:46:43;;;;;;;13.07;11.07;;;6.70;53.10;;;;;;20918;6743;117511;-89
2022/01/10 11:49:30;;;;;;;16.27;11.60;;;6.60;53.50;;;;;;20846;6743;116853;-88
2022/01/10 11:51:56;;;;;;;17.67;11.93;;;6.50;53.70;;;;;;20903;6743;117950;-87
2022/01/10 11:54:37;;;;;;;15.50;13.67;;;6.40;53.90;;;;;;20743;6728;305696;-87
2022/01/10 11:57:19;;;;;;;15.67;12.53;;;6.70;53.50;;;;;;20813;6770;116335;-88
2022/01/10 12:00:06;;;;;;;;;;;;;;;;;;;;;
2022/01/10 12:02:42;;;;;;;;;;;;;;;;;;;;;
2022/01/10 12:05:09;;;;;;;14.50;12.40;;;6.90;52.80;;;;;;20489;6763;307800;-89
2022/01/10 12:07:45;;;;;;;11.53;10.43;;;7.30;52.50;;;;;;20747;6731;116804;-89
2022/01/10 12:10:19;;;;;;;11.80;10.60;;;7.40;52.20;;;;;;20713;6761;117883;-91
2022/01/10 12:12:58;;;;;;;10.33;9.33;;;7.20;52.40;;;;;;20792;6756;117350;-89
2022/01/10 12:15:34;;;;;;;13.03;10.77;;;7.00;52.80;;;;;;20648;6753;280425;-90
2022/01/10 12:18:09;;;;;;;12.60;11.13;;;7.10;52.20;;;;;;20813;6746;117353;-89
2022/01/10 12:20:45;;;;;;;11.90;10.70;;;7.20;51.90;;;;;;20705;6755;118253;-92
2022/01/10 12:23:21;;;;;;;15.63;14.10;;;7.00;52.10;;;;;;20889;6792;119648;-91
2022/01/10 12:25:56;;;;;;;16.93;15.20;;;6.90;52.40;;;;;;20520;6741;335116;-91
2022/01/10 12:28:33;;;;;;;13.18;11.77;;;7.00;51.80;;;;;;20709;6741;310556;-92
2022/01/10 12:31:19;;;;;;;16.37;14.93;;;7.30;50.50;;;;;;20617;6732;306045;-90
2022/01/10 12:33:49;;;;;;;12.00;10.77;;;7.70;51.40;;;;;;20862;6794;147237;-91
2022/01/10 12:36:25;;;;;;;11.67;10.20;;;7.40;51.50;;;;;;20831;6801;117031;-88
2022/01/10 12:39:17;;;;;;;13.77;12.32;;;7.40;51.50;;;;;;20515;6797;306063;-90
2022/01/10 12:41:42;;;;;;;13.23;11.90;;;7.50;50.40;;;;;;20899;6795;116341;-91
2022/01/10 12:44:28;;;;;;;;;;;;;;;;;;;;;
2022/01/10 12:46:54;;;;;;;14.43;13.03;;;7.20;51.20;;;;;;20605;6764;305093;-91
2022/01/10 12:49:29;;;;;;;10.00;9.00;;;7.30;51.40;;;;;;20884;6739;116624;-94
2022/01/10 12:52:05;;;;;;;9.13;8.33;;;7.40;51.60;;;;;;19967;6757;307651;-90
2022/01/10 12:54:40;;;;;;;10.17;9.10;;;7.60;52.10;;;;;;20831;6748;116511;-91
2022/01/10 12:57:35;;;;;;;;;;;;;;;;;;;;;
2022/01/10 13:00:02;;;;;;;;;;;;;;;;;;;;;
2022/01/10 13:02:37;;;;;;;;;;;;;;;;;;;;;
2022/01/10 13:05:04;;;;;;;11.15;9.82;;;7.80;51.60;;;;;;20571;6754;301077;-95
2022/01/10 13:07:38;;;;;;;12.43;9.90;;;8.10;50.20;;;;;;20754;6761;68776;-92
2022/01/10 13:10:33;;;;;;;13.70;12.07;;;8.10;50.20;;;;;;20120;6848;325095;-93
2022/01/10 13:12:54;;;;;;;10.05;9.05;;;8.20;49.70;;;;;;20603;6806;300501;-93
2022/01/10 13:15:39;;;;;;;15.37;10.03;;;8.40;48.90;;;;;;20744;6827;116759;-90
2022/01/10 13:18:15;;;;;;;13.57;12.02;;;8.30;49.40;;;;;;20538;6833;306228;-94
2022/01/10 13:20:59;;;;;;;10.65;9.63;;;8.30;48.90;;;;;;20496;6763;307646;-93
2022/01/10 13:23:34;;;;;;;11.07;8.27;;;8.50;48.70;;;;;;20817;6754;114242;-88
2022/01/10 13:26:17;;;;;;;9.37;8.30;;;8.20;49.10;;;;;;20785;6741;123825;-89
2022/01/10 13:29:08;;;;;;;;;;;;;;;;;;;;;
2022/01/10 13:34:12;;;;;;;11.20;10.03;;;7.90;51.10;;;;;;19985;6789;280625;-86
2022/01/10 13:36:49;;;;;;;9.60;8.63;;;8.30;49.50;;;;;;20707;6789;117267;-90
2022/01/10 13:39:30;;;;;;;13.33;10.17;;;8.40;49.20;;;;;;20589;6763;281863;-90
2022/01/10 13:42:10;;;;;;;11.13;9.00;;;8.40;49.20;;;;;;20853;6747;120993;-87
2022/01/10 13:44:48;;;;;;;9.77;8.87;;;8.30;49.90;;;;;;20838;6755;117559;-90
2022/01/10 13:47:36;;;;;;;12.35;9.35;;;8.10;49.90;;;;;;20698;6736;334355;-92
2022/01/10 14:39:30;;;;;;;12.68;9.75;;;9.70;46.70;;;;;;20898;6558;336639;-90
2022/01/10 14:47:28;;;;;;;7.73;6.97;;;9.30;47.20;;;;;;18407;7498;71343;-92